Terminal Aerodrome Forecast
Issued by NWS Mt. Holly, NJ

Home | Current Version | Previous Version | Text Only | Print | Product List | Glossary On
Versions: 1 2 3 4 5 6 7 8 9 10 11 12 13 14
000
FTUS41 KPHI 240530
TAFACY
TAF
KACY 240530Z 2406/2506 VRB03KT P6SM FEW250
      TEMPO 2407/2410 3SM BR SCT002
     FM241200 03005KT P6SM FEW100
     FM241700 15008KT P6SM SCT250=

USA.gov is the U.S. government's official web portal to all federal, state and local government web resources and services.